This is the latest recevied weather packets stored in our database for station/object SR4DIG-13. If no packets are shown the sender has not sent any weather packets the latest 10 day(s).
| Time | Temp. | Humidity | Pressure | Rain* | Wind** | Luminosity | Snow |
|---|---|---|---|---|---|---|---|
| 1787815771 | 26.67° C | 48% | 1024.4 hPa | 0 mm | - | - | - |
| 1787815470 | 26.67° C | 49% | 1024.6 hPa | 0 mm | - | - | - |
| 1787815169 | 25.56° C | 51% | 1024.5 hPa | 0 mm | - | - | - |
| 1787814868 | 25.56° C | 52% | 1024.7 hPa | 0 mm | - | - | - |
| 1787814567 | 25° C | 53% | 1024.4 hPa | 0 mm | - | - | - |
| 1787814266 | 24.44° C | 55% | 1024.5 hPa | 0 mm | - | - | - |
| 1787813966 | 23.89° C | 55% | 1024.5 hPa | 0 mm | - | - | - |
| 1787813665 | 23.33° C | 56% | 1024.6 hPa | 0 mm | - | - | - |
| 1787813364 | 23.33° C | 55% | 1024.4 hPa | 0 mm | - | - | - |
| 1787812751 | 22.78° C | 60% | 1024.3 hPa | 0 mm | - | - | - |
| 1787812450 | 22.22° C | 59% | 1024.3 hPa | 0 mm | - | - | - |
| 1787812191 | 17.78° C | 72% | 1024.2 hPa | 0 mm | - | - | - |
| 1787812149 | 22.22° C | 61% | 1024.4 hPa | 0 mm | - | - | - |
| 1787811848 | 21.67° C | 61% | 1024.4 hPa | 0 mm | - | - | - |
| 1787811547 | 21.67° C | 61% | 1024.5 hPa | 0 mm | - | - | - |
| 1787811246 | 21.11° C | 63% | 1024.4 hPa | 0 mm | - | - | - |
| 1787811021 | 16.67° C | 78% | 1024.3 hPa | 0 mm | - | - | - |
| 1787810945 | 20.56° C | 63% | 1024.3 hPa | 0 mm | - | - | - |
| 1787810691 | 15.56° C | 79% | 1024.1 hPa | 0 mm | - | - | - |
| 1787810644 | 20.56° C | 65% | 1024.3 hPa | 0 mm | - | - | - |
| 1787810343 | 20.56° C | 65% | 1024.3 hPa | 0 mm | - | - | - |
| 1787810313 | 14.44° C | 81% | 1024.3 hPa | 0 mm | - | - | - |
| 1787810043 | 20° C | 66% | 1024.2 hPa | 0 mm | - | - | - |
| 1787809742 | 20° C | 68% | 1024.3 hPa | 0 mm | - | - | - |
| 1787809596 | 13.89° C | 83% | 1024.2 hPa | 0 mm | - | - | - |
* Rain latest hour (hover to see other rain measurements)
** Current wind speed in m/s (hover to see current wind gust speed)